A39 weather

Ak-Chin Regional Airport
Maricopa, Arizona, United States

Public forecast

Using degrees Fahrenheit for public forecast. Weather courtesy of forecast.io.

Closest aviation weather report (METAR) to Ak-Chin Regional Airport

Closest report is Casa Grande Municipal Airport, 7.9 nm (14.7 km) ESE. Retrieved 2020/08/03 16:56 UTC (12 minutes ago):

KCGZ 031656Z AUTO 28005KT 10SM CLR 37/17 A2996 RMK AO2 SLP123 T03720167

Closest aviation forecast (TAF) to Ak-Chin Regional Airport

Closest forecast is Phoenix-Mesa-Gateway Airport, 23.2 nm (42.9 km) NE. Retrieved 2020/08/03 12:22 UTC (5 hours ago):

TAF KIWA 031120Z 0312/0412 13006KT P6SM BKN250 FM031800 25009KT P6SM SCT250 FM040800 12006KT P6SM SCT250